UAII 230113Z 34003MPS 1000 R10/P2000U SHSN BR BKN003 OVC022CB M01/M02 Q1026 NOSIG RMK QBB100 QFE734/0979
QNH:(hPa/inHg/mmHg)1026 / 30.3 / 770
QFE:(hPa/inHg/mmHg)975 / 28.78 / 731
Temperature-1
Dew Point-2
Visibility1000
WeatherShowers Snow;Mist
Cloud CoverBKN (300);
OVC (2200);
Transition Altitude10000 ft.
Transition LevelFL110
SQUAWK